Time;durP1;ratioP1;P1;durP2;ratioP2;P2;SDS_P1;SDS_P2;PMS_P1;PMS_P2;Temp;Humidity;BMP_temperature;BMP_pressure;BME280_temperature;BME280_humidity;BME280_pressure;Samples;Min_cycle;Max_cycle;Signal;HPM_P1;HPM_P2
2023/05/06 00:01:37;;;;;;;23.40;7.38;;;;;;;;;;6298668;28;20115;-81
2023/05/06 00:04:42;;;;;;;9.95;4.60;;;;;;;;;;6290566;28;20052;-80
2023/05/06 00:07:45;;;;;;;10.93;5.15;;;;;;;;;;6297108;28;20045;-80
2023/05/06 00:10:48;;;;;;;17.05;5.63;;;;;;;;;;6292125;28;20053;-81
2023/05/06 00:14:05;;;;;;;7.38;4.40;;;;;;;;;;6299189;28;20149;-80
2023/05/06 00:17:07;;;;;;;8.27;3.65;;;;;;;;;;6294025;28;20058;-80
2023/05/06 00:20:10;;;;;;;15.55;4.70;;;;;;;;;;6298586;28;20053;-80
2023/05/06 00:26:45;;;;;;;14.82;7.45;;;;;;;;;;6228260;28;20071;-81
2023/05/06 00:29:50;;;;;;;14.60;5.38;;;;;;;;;;6288550;28;20064;-80
2023/05/06 00:32:56;;;;;;;9.82;4.03;;;;;;;;;;6295243;28;20430;-80
2023/05/06 00:35:58;;;;;;;8.68;4.85;;;;;;;;;;6299570;28;20060;-80
2023/05/06 00:39:02;;;;;;;8.30;4.28;;;;;;;;;;6295607;28;20122;-80
2023/05/06 00:42:22;;;;;;;;;;;;;;;;;;;;;
2023/05/06 00:45:36;;;;;;;19.33;6.10;;;;;;;;;;6295184;28;20044;-84
2023/05/06 00:48:43;;;;;;;11.65;4.95;;;;;;;;;;6286822;28;20329;-81
2023/05/06 00:51:48;;;;;;;13.93;5.10;;;;;;;;;;6292301;28;20124;-80
2023/05/06 00:55:06;;;;;;;11.60;4.28;;;;;;;;;;6296679;28;20051;-80
2023/05/06 00:58:23;;;;;;;4.80;2.60;;;;;;;;;;6280322;28;20052;-80
2023/05/06 01:01:35;;;;;;;;;;;;;;;;;;;;;
2023/05/06 01:04:50;;;;;;;4.85;2.50;;;;;;;;;;6273824;28;20109;-80
2023/05/06 01:08:13;;;;;;;9.40;2.58;;;;;;;;;;6284372;28;20055;-80
2023/05/06 01:11:25;;;;;;;11.40;2.30;;;;;;;;;;6296419;28;20098;-80
2023/05/06 01:14:35;;;;;;;5.10;2.67;;;;;;;;;;6289865;28;20122;-79
2023/05/06 01:24:58;;;;;;;4.30;2.42;;;;;;;;;;6191035;28;20054;-80
2023/05/06 01:28:37;;;;;;;7.05;2.28;;;;;;;;;;6194635;28;20066;-80
2023/05/06 01:31:48;;;;;;;5.38;2.28;;;;;;;;;;6193962;28;20062;-80
2023/05/06 01:35:06;;;;;;;3.75;2.20;;;;;;;;;;6193917;28;20147;-80
2023/05/06 01:38:16;;;;;;;7.05;2.80;;;;;;;;;;6195629;28;20066;-80
2023/05/06 01:41:20;;;;;;;3.83;2.22;;;;;;;;;;6201037;28;20444;-80
2023/05/06 01:44:25;;;;;;;5.47;2.28;;;;;;;;;;6193134;28;20060;-80
2023/05/06 01:47:27;;;;;;;5.65;2.25;;;;;;;;;;6195405;28;20261;-80
2023/05/06 01:53:59;;;;;;;9.45;2.50;;;;;;;;;;6193376;28;20046;-80
2023/05/06 01:57:02;;;;;;;9.45;2.35;;;;;;;;;;6215432;28;20064;-80
2023/05/06 02:00:09;;;;;;;13.43;2.85;;;;;;;;;;6272375;28;20045;-79
2023/05/06 02:03:11;;;;;;;4.25;1.83;;;;;;;;;;6273145;28;20260;-80
2023/05/06 02:09:28;;;;;;;8.00;2.63;;;;;;;;;;6276189;28;20106;-80
2023/05/06 02:12:40;;;;;;;6.82;2.30;;;;;;;;;;6277691;28;20049;-79
2023/05/06 02:15:42;;;;;;;3.88;2.67;;;;;;;;;;6304656;28;20059;-80
2023/05/06 02:18:44;;;;;;;6.28;3.30;;;;;;;;;;6304206;28;20060;-80
2023/05/06 02:33:33;;;;;;;4.18;2.00;;;;;;;;;;6295731;28;20053;-80
2023/05/06 02:36:35;;;;;;;4.40;1.80;;;;;;;;;;6302298;28;20068;-80
2023/05/06 02:39:40;;;;;;;5.10;1.88;;;;;;;;;;6298223;28;20052;-79
2023/05/06 02:46:10;;;;;;;10.30;2.53;;;;;;;;;;6282251;28;20058;-80
2023/05/06 02:49:12;;;;;;;3.20;2.47;;;;;;;;;;6296940;28;20690;-80
2023/05/06 02:52:20;;;;;;;5.00;2.20;;;;;;;;;;6286581;28;20060;-80
2023/05/06 02:55:25;;;;;;;3.55;2.20;;;;;;;;;;6297771;28;20268;-80
2023/05/06 02:58:27;;;;;;;6.13;2.47;;;;;;;;;;6294027;28;20252;-80
2023/05/06 03:01:34;;;;;;;4.15;2.20;;;;;;;;;;6295941;28;20259;-80
2023/05/06 03:04:36;;;;;;;3.83;2.53;;;;;;;;;;6292215;28;20040;-80
2023/05/06 03:07:56;;;;;;;2.75;2.38;;;;;;;;;;6293086;28;20056;-79
2023/05/06 03:10:58;;;;;;;3.22;1.70;;;;;;;;;;6297883;28;20055;-80
2023/05/06 03:14:01;;;;;;;3.65;2.10;;;;;;;;;;6299109;28;20060;-80
2023/05/06 03:20:20;;;;;;;4.57;2.20;;;;;;;;;;6285079;28;20103;-80
2023/05/06 03:23:22;;;;;;;6.35;2.13;;;;;;;;;;6302669;28;20059;-81
2023/05/06 03:26:24;;;;;;;4.50;2.25;;;;;;;;;;6300416;28;20356;-80
2023/05/06 03:29:26;;;;;;;4.32;2.03;;;;;;;;;;6304351;28;20060;-80
2023/05/06 03:36:26;;;;;;;4.28;2.13;;;;;;;;;;6191050;28;20046;-79
2023/05/06 04:04:19;;;;;;;3.65;2.15;;;;;;;;;;6153761;28;20035;-80
2023/05/06 04:07:50;;;;;;;3.28;2.00;;;;;;;;;;6140477;28;20047;-80
2023/05/06 04:38:47;;;;;;;6.22;3.30;;;;;;;;;;5884247;29;20055;-81
2023/05/06 04:41:54;;;;;;;11.70;3.65;;;;;;;;;;5942294;29;20267;-81
2023/05/06 04:44:58;;;;;;;6.35;3.70;;;;;;;;;;5958985;29;20172;-80
2023/05/06 04:48:01;;;;;;;8.38;3.67;;;;;;;;;;5989502;29;20069;-80
2023/05/06 04:51:04;;;;;;;4.55;3.38;;;;;;;;;;5980986;29;20158;-80
2023/05/06 04:54:06;;;;;;;6.53;3.73;;;;;;;;;;5987722;29;20129;-80
2023/05/06 04:57:07;;;;;;;8.13;3.78;;;;;;;;;;5984266;29;20051;-80
2023/05/06 05:00:10;;;;;;;5.53;3.80;;;;;;;;;;6066515;29;20267;-79
2023/05/06 05:03:13;;;;;;;7.72;3.58;;;;;;;;;;6102008;29;20064;-80
2023/05/06 05:06:15;;;;;;;10.05;4.18;;;;;;;;;;6099767;29;20060;-78
2023/05/06 05:09:17;;;;;;;6.10;3.92;;;;;;;;;;6122608;28;20523;-79
2023/05/06 05:12:40;;;;;;;5.57;3.70;;;;;;;;;;6223888;28;20166;-79
2023/05/06 05:15:42;;;;;;;5.07;3.78;;;;;;;;;;6247519;28;20061;-79
2023/05/06 05:18:45;;;;;;;7.35;4.30;;;;;;;;;;6247088;28;20051;-80
2023/05/06 05:21:47;;;;;;;5.60;3.75;;;;;;;;;;6249681;28;20057;-80
2023/05/06 05:24:49;;;;;;;10.30;4.28;;;;;;;;;;6247068;28;20060;-79
2023/05/06 05:27:51;;;;;;;6.25;3.20;;;;;;;;;;6248891;28;20109;-80
2023/05/06 05:30:53;;;;;;;5.00;3.35;;;;;;;;;;6248392;28;20080;-79
2023/05/06 05:33:59;;;;;;;5.32;3.28;;;;;;;;;;6243075;28;20057;-80
2023/05/06 05:37:10;;;;;;;3.65;2.40;;;;;;;;;;6248684;28;20059;-78
2023/05/06 05:40:13;;;;;;;4.22;2.67;;;;;;;;;;6250255;28;20045;-80
2023/05/06 05:43:52;;;;;;;4.50;2.40;;;;;;;;;;6250159;28;20127;-79
2023/05/06 05:47:06;;;;;;;3.92;2.25;;;;;;;;;;6235069;28;20084;-79
2023/05/06 06:22:20;;;;;;;4.85;1.38;;;;;;;;;;5947223;29;20282;-83
2023/05/06 06:26:14;;;;;;;3.63;1.70;;;;;;;;;;5929244;29;20139;-78
2023/05/06 06:38:04;;;;;;;6.15;1.80;;;;;;;;;;6080757;29;20055;-80
2023/05/06 07:21:00;;;;;;;7.63;2.80;;;;;;;;;;5911815;29;20122;-75
2023/05/06 07:24:02;;;;;;;6.97;2.42;;;;;;;;;;6077321;29;20110;-79
2023/05/06 07:27:19;;;;;;;9.32;2.40;;;;;;;;;;6098652;28;20119;-78
2023/05/06 07:30:37;;;;;;;5.43;2.47;;;;;;;;;;6131030;28;20062;-78
2023/05/06 07:33:40;;;;;;;4.82;2.10;;;;;;;;;;6186168;28;20054;-78
2023/05/06 07:36:44;;;;;;;2.88;1.92;;;;;;;;;;6198910;28;20129;-77
2023/05/06 07:39:46;;;;;;;3.10;1.75;;;;;;;;;;6232288;28;20057;-77
2023/05/06 07:42:51;;;;;;;3.10;2.13;;;;;;;;;;6279432;28;20106;-76
2023/05/06 07:46:18;;;;;;;4.35;2.28;;;;;;;;;;6255720;28;20237;-76
2023/05/06 07:49:20;;;;;;;3.60;2.15;;;;;;;;;;6275553;28;20068;-78
2023/05/06 07:53:02;;;;;;;3.97;2.20;;;;;;;;;;6278151;28;20061;-76
2023/05/06 07:56:05;;;;;;;4.70;2.60;;;;;;;;;;6272338;28;20119;-78
2023/05/06 07:59:10;;;;;;;4.73;2.23;;;;;;;;;;6282177;28;20060;-76
2023/05/06 08:02:27;;;;;;;3.72;2.83;;;;;;;;;;6281856;28;20108;-77
2023/05/06 08:09:23;;;;;;;;;;;;;;;;;;;;;
2023/05/06 08:12:25;;;;;;;8.13;3.03;;;;;;;;;;6246175;28;20045;-78
2023/05/06 08:15:27;;;;;;;5.70;2.90;;;;;;;;;;6291317;28;20152;-78
2023/05/06 08:22:24;;;;;;;5.43;2.80;;;;;;;;;;6248640;28;20080;-77
2023/05/06 08:25:39;;;;;;;4.00;2.50;;;;;;;;;;6275895;28;20076;-78
2023/05/06 08:32:39;;;;;;;3.70;3.35;;;;;;;;;;6274118;28;20133;-76
2023/05/06 08:35:41;;;;;;;8.13;3.05;;;;;;;;;;6177725;28;20351;-76
2023/05/06 09:50:03;;;;;;;6.70;3.97;;;;;;;;;;5962786;29;20404;-86
2023/05/06 09:57:19;;;;;;;;;;;;;;;;;;;;;
2023/05/06 10:10:56;;;;;;;6.32;4.72;;;;;;;;;;6080931;29;20056;-87
2023/05/06 10:17:33;;;;;;;5.57;4.15;;;;;;;;;;6194947;28;20069;-87
2023/05/06 10:20:54;;;;;;;6.93;4.50;;;;;;;;;;6183190;28;20054;-93
2023/05/06 10:24:29;;;;;;;7.57;4.47;;;;;;;;;;6191825;28;20062;-86
2023/05/06 11:10:13;;;;;;;8.95;4.45;;;;;;;;;;5994457;29;20065;-76
2023/05/06 11:17:43;;;;;;;9.50;5.60;;;;;;;;;;6078044;29;20115;-77
2023/05/06 11:24:13;;;;;;;8.27;4.68;;;;;;;;;;6064627;28;20058;-74
2023/05/06 11:34:55;;;;;;;5.60;5.10;;;;;;;;;;6048111;29;20056;-77
2023/05/06 11:41:15;;;;;;;7.25;5.57;;;;;;;;;;6131095;29;20062;-77
2023/05/06 11:44:30;;;;;;;6.95;6.25;;;;;;;;;;6129886;29;20055;-77
2023/05/06 11:47:32;;;;;;;6.05;5.40;;;;;;;;;;6129307;29;20063;-75
2023/05/06 11:50:34;;;;;;;7.32;5.75;;;;;;;;;;6128271;29;20063;-76
2023/05/06 11:53:46;;;;;;;7.20;6.50;;;;;;;;;;6132155;29;20075;-76
2023/05/06 11:56:49;;;;;;;10.65;5.53;;;;;;;;;;6129069;29;20335;-74
2023/05/06 11:59:54;;;;;;;9.27;6.90;;;;;;;;;;6130794;29;20335;-76
2023/05/06 12:02:56;;;;;;;6.65;4.82;;;;;;;;;;6126687;29;20242;-79
2023/05/06 12:05:58;;;;;;;6.25;5.57;;;;;;;;;;6131436;29;20291;-76
2023/05/06 12:09:24;;;;;;;8.77;4.10;;;;;;;;;;6131214;29;20050;-79
2023/05/06 12:12:26;;;;;;;8.45;6.05;;;;;;;;;;6209311;28;20138;-77
2023/05/06 12:15:33;;;;;;;5.82;4.20;;;;;;;;;;6225604;28;20393;-78
2023/05/06 12:18:35;;;;;;;5.53;4.90;;;;;;;;;;6227608;28;20057;-79
2023/05/06 12:21:56;;;;;;;6.95;6.25;;;;;;;;;;6225491;28;20041;-77
2023/05/06 12:25:13;;;;;;;6.72;5.22;;;;;;;;;;6226271;28;20048;-80
2023/05/06 12:28:15;;;;;;;7.22;6.00;;;;;;;;;;6217921;28;20062;-80
2023/05/06 12:31:21;;;;;;;;;;;;;;;;;;6229998;28;20417;-79
2023/05/06 12:34:44;;;;;;;7.35;6.47;;;;;;;;;;6229279;28;20325;-79
2023/05/06 12:37:46;;;;;;;7.20;5.10;;;;;;;;;;6223502;28;20045;-77
2023/05/06 12:40:54;;;;;;;9.13;7.25;;;;;;;;;;6224752;28;20358;-81
2023/05/06 12:43:56;;;;;;;7.07;5.30;;;;;;;;;;6228370;28;20046;-80
2023/05/06 12:47:00;;;;;;;6.03;4.63;;;;;;;;;;6227787;28;20321;-80
2023/05/06 12:50:26;;;;;;;;;;;;;;;;;;;;;
2023/05/06 12:53:34;;;;;;;7.10;5.50;;;;;;;;;;6227359;28;20049;-79
2023/05/06 12:56:41;;;;;;;7.35;6.53;;;;;;;;;;6227159;28;20270;-80
2023/05/06 12:59:43;;;;;;;7.88;5.22;;;;;;;;;;6227167;28;20445;-80
2023/05/06 13:02:47;;;;;;;5.72;4.57;;;;;;;;;;6224286;28;20109;-79
2023/05/06 13:05:50;;;;;;;5.18;4.15;;;;;;;;;;6227256;28;20353;-81
2023/05/06 13:08:52;;;;;;;5.55;5.05;;;;;;;;;;6225010;28;20121;-78
2023/05/06 13:12:03;;;;;;;10.60;6.43;;;;;;;;;;6226730;28;20053;-77
2023/05/06 13:15:06;;;;;;;5.15;4.65;;;;;;;;;;6227938;28;20273;-80
2023/05/06 13:18:10;;;;;;;9.32;6.90;;;;;;;;;;6225888;28;20121;-82
2023/05/06 13:21:12;;;;;;;100.53;71.78;;;;;;;;;;6229421;28;20064;-81
2023/05/06 13:24:14;;;;;;;22.48;17.67;;;;;;;;;;6220063;28;20277;-79
2023/05/06 13:27:18;;;;;;;8.77;7.15;;;;;;;;;;6220459;28;20058;-81
2023/05/06 13:30:20;;;;;;;7.13;5.30;;;;;;;;;;6220324;28;20128;-80
2023/05/06 13:33:26;;;;;;;8.55;5.75;;;;;;;;;;6221714;28;20085;-81
2023/05/06 13:36:46;;;;;;;7.22;5.78;;;;;;;;;;6217314;28;20149;-82
2023/05/06 13:47:30;;;;;;;8.40;6.20;;;;;;;;;;6175847;28;19936;-80
2023/05/06 13:54:22;;;;;;;8.35;6.28;;;;;;;;;;6073390;29;20055;-80
2023/05/06 13:57:24;;;;;;;8.10;7.30;;;;;;;;;;6121941;29;20051;-77
2023/05/06 14:00:43;;;;;;;10.07;6.70;;;;;;;;;;6107987;29;20135;-80
2023/05/06 14:03:50;;;;;;;9.45;5.05;;;;;;;;;;6119296;29;20108;-81
2023/05/06 14:06:52;;;;;;;8.95;6.43;;;;;;;;;;6121414;28;20075;-78
2023/05/06 14:09:55;;;;;;;8.45;7.30;;;;;;;;;;6125920;29;20064;-80
2023/05/06 14:13:17;;;;;;;12.38;7.93;;;;;;;;;;6126411;28;20052;-81
2023/05/06 14:16:25;;;;;;;7.10;6.40;;;;;;;;;;6120000;29;20059;-80
2023/05/06 14:19:28;;;;;;;7.63;5.82;;;;;;;;;;6188820;28;20759;-81
2023/05/06 14:22:30;;;;;;;7.53;6.78;;;;;;;;;;6210274;28;20161;-80
2023/05/06 14:25:36;;;;;;;5.60;5.05;;;;;;;;;;6219093;28;20069;-80
2023/05/06 14:28:38;;;;;;;6.07;4.95;;;;;;;;;;6218224;28;20045;-80
2023/05/06 14:36:02;;;;;;;;;;;;;;;;;;;;;
2023/05/06 14:39:14;;;;;;;;;;;;;;;;;;;;;
2023/05/06 14:43:15;;;;;;;7.60;5.80;;;;;;;;;;6209800;28;20053;-77
2023/05/06 14:46:57;;;;;;;6.22;4.72;;;;;;;;;;6208102;28;20113;-81
2023/05/06 14:51:01;;;;;;;10.93;4.97;;;;;;;;;;6209859;28;20419;-81
2023/05/06 14:54:16;;;;;;;5.63;4.10;;;;;;;;;;6136021;28;20055;-80
2023/05/06 15:00:54;;;;;;;;;;;;;;;;;;;;;
2023/05/06 15:04:15;;;;;;;5.55;4.68;;;;;;;;;;6214126;28;20120;-79
2023/05/06 15:07:32;;;;;;;5.20;4.63;;;;;;;;;;6208115;28;20124;-83
2023/05/06 15:10:48;;;;;;;7.18;5.57;;;;;;;;;;6214467;28;20058;-80
2023/05/06 15:13:52;;;;;;;5.07;4.07;;;;;;;;;;6212419;28;20053;-76
2023/05/06 15:16:56;;;;;;;7.45;5.45;;;;;;;;;;6170681;28;20214;-78
2023/05/06 15:19:59;;;;;;;6.38;4.97;;;;;;;;;;6170688;28;20149;-77
2023/05/06 15:23:01;;;;;;;7.97;5.18;;;;;;;;;;6172864;28;20235;-78
2023/05/06 15:26:06;;;;;;;8.90;6.47;;;;;;;;;;6169157;28;20058;-78
2023/05/06 15:29:08;;;;;;;6.25;4.95;;;;;;;;;;6170445;28;20050;-78
2023/05/06 15:32:11;;;;;;;6.10;5.18;;;;;;;;;;6170391;28;20094;-79
2023/05/06 15:35:13;;;;;;;5.03;4.40;;;;;;;;;;6168414;28;20059;-80
2023/05/06 15:38:15;;;;;;;6.10;4.07;;;;;;;;;;6170427;28;20069;-80
2023/05/06 15:41:18;;;;;;;6.18;4.80;;;;;;;;;;6219276;28;20065;-79
2023/05/06 15:44:23;;;;;;;9.18;5.30;;;;;;;;;;6219142;28;20050;-80
2023/05/06 15:47:29;;;;;;;9.75;5.25;;;;;;;;;;6209593;28;20391;-80
2023/05/06 15:50:31;;;;;;;5.75;4.32;;;;;;;;;;6210320;28;22182;-78
2023/05/06 15:53:33;;;;;;;7.60;5.10;;;;;;;;;;6217640;28;20066;-76
2023/05/06 15:56:35;;;;;;;9.80;5.17;;;;;;;;;;6221450;28;20302;-78
2023/05/06 15:59:44;;;;;;;7.77;4.43;;;;;;;;;;6222379;28;20097;-77
2023/05/06 16:02:48;;;;;;;7.05;5.00;;;;;;;;;;6213538;28;20468;-76
2023/05/06 16:05:59;;;;;;;5.65;4.88;;;;;;;;;;6197466;28;20358;-78
2023/05/06 16:09:15;;;;;;;10.07;5.68;;;;;;;;;;6198702;28;20057;-81
2023/05/06 16:12:17;;;;;;;9.38;5.57;;;;;;;;;;6187004;28;20065;-83
2023/05/06 16:15:19;;;;;;;8.43;5.72;;;;;;;;;;6200064;28;20050;-83
2023/05/06 16:18:33;;;;;;;5.80;5.03;;;;;;;;;;6200279;28;20058;-79
2023/05/06 16:21:44;;;;;;;11.68;5.45;;;;;;;;;;6198136;28;20051;-81
2023/05/06 16:24:49;;;;;;;6.95;5.25;;;;;;;;;;6197567;28;20050;-82
2023/05/06 16:28:18;;;;;;;6.72;4.97;;;;;;;;;;6203354;28;20042;-81
2023/05/06 16:31:47;;;;;;;5.57;4.53;;;;;;;;;;6201808;28;20062;-82
2023/05/06 16:39:27;;;;;;;7.55;5.60;;;;;;;;;;6221476;28;20046;-82
2023/05/06 16:43:00;;;;;;;6.32;5.72;;;;;;;;;;6135597;28;20329;-82
2023/05/06 16:50:47;;;;;;;10.80;5.78;;;;;;;;;;6206778;28;20226;-82
2023/05/06 16:54:42;;;;;;;10.40;7.18;;;;;;;;;;6200914;28;20050;-81
2023/05/06 17:01:56;;;;;;;8.30;6.82;;;;;;;;;;6208900;28;20141;-83
2023/05/06 17:05:01;;;;;;;14.18;8.10;;;;;;;;;;6217121;28;20093;-79
2023/05/06 17:08:09;;;;;;;10.65;8.48;;;;;;;;;;6216976;28;20062;-81
2023/05/06 17:11:52;;;;;;;11.10;7.45;;;;;;;;;;6215736;28;20249;-89
2023/05/06 17:15:24;;;;;;;12.13;7.22;;;;;;;;;;6209952;28;20149;-78
2023/05/06 17:18:28;;;;;;;9.02;6.75;;;;;;;;;;6189344;28;20057;-75
2023/05/06 17:22:12;;;;;;;9.65;7.00;;;;;;;;;;6201616;28;20122;-79
2023/05/06 17:25:24;;;;;;;8.75;7.30;;;;;;;;;;6196366;28;20190;-78
2023/05/06 17:29:17;;;;;;;12.18;6.97;;;;;;;;;;6186880;28;20058;-77
2023/05/06 17:36:15;;;;;;;13.50;9.23;;;;;;;;;;6197629;28;20199;-78
2023/05/06 17:43:19;;;;;;;12.05;8.30;;;;;;;;;;6182131;28;20054;-78
2023/05/06 17:46:22;;;;;;;13.43;8.30;;;;;;;;;;6173376;28;20191;-76
2023/05/06 17:49:45;;;;;;;12.68;7.75;;;;;;;;;;6197895;28;20066;-77
2023/05/06 17:56:12;;;;;;;10.02;6.97;;;;;;;;;;6177979;28;20232;-79
2023/05/06 17:59:21;;;;;;;12.15;6.70;;;;;;;;;;6197773;28;20221;-78
2023/05/06 18:02:35;;;;;;;11.63;7.03;;;;;;;;;;6191503;28;21079;-77
2023/05/06 18:06:11;;;;;;;17.95;8.88;;;;;;;;;;6194042;28;20054;-79
2023/05/06 18:13:18;;;;;;;12.40;7.20;;;;;;;;;;6169715;28;20113;-81
2023/05/06 18:16:23;;;;;;;12.85;7.78;;;;;;;;;;6197838;28;20073;-81
2023/05/06 18:19:25;;;;;;;11.35;7.50;;;;;;;;;;6217765;28;20057;-79
2023/05/06 18:22:33;;;;;;;14.20;8.02;;;;;;;;;;6214104;28;20104;-79
2023/05/06 18:25:35;;;;;;;9.68;7.13;;;;;;;;;;6224844;28;20330;-76
2023/05/06 18:28:40;;;;;;;18.52;7.60;;;;;;;;;;6225566;28;20056;-79
2023/05/06 18:31:45;;;;;;;13.10;7.30;;;;;;;;;;6224895;28;20049;-78
2023/05/06 18:34:47;;;;;;;9.50;7.75;;;;;;;;;;6204403;28;20050;-80
2023/05/06 18:38:08;;;;;;;10.90;7.47;;;;;;;;;;6224570;28;20131;-79
2023/05/06 18:41:40;;;;;;;9.85;7.28;;;;;;;;;;6215535;28;20074;-79
2023/05/06 18:48:02;;;;;;;9.13;6.82;;;;;;;;;;6224415;28;20116;-79
2023/05/06 18:51:14;;;;;;;16.60;8.50;;;;;;;;;;6222998;28;20094;-79
2023/05/06 18:54:16;;;;;;;11.35;7.68;;;;;;;;;;6207106;28;20145;-78
2023/05/06 18:57:18;;;;;;;10.10;7.38;;;;;;;;;;6225585;28;20055;-79
2023/05/06 19:00:23;;;;;;;8.02;6.30;;;;;;;;;;6214067;28;20128;-80
2023/05/06 19:03:33;;;;;;;8.73;7.05;;;;;;;;;;6221771;28;20066;-80
2023/05/06 19:06:37;;;;;;;10.68;7.30;;;;;;;;;;6221308;28;20416;-81
2023/05/06 19:13:06;;;;;;;11.30;7.30;;;;;;;;;;6219195;28;20057;-78
2023/05/06 19:16:11;;;;;;;8.80;7.30;;;;;;;;;;6221696;28;20179;-80
2023/05/06 19:19:13;;;;;;;9.40;6.55;;;;;;;;;;6195747;28;20046;-80
2023/05/06 19:22:15;;;;;;;11.57;7.32;;;;;;;;;;6200454;28;20046;-81
2023/05/06 19:25:36;;;;;;;8.93;7.20;;;;;;;;;;6192099;28;20109;-79
2023/05/06 19:32:35;;;;;;;12.32;7.07;;;;;;;;;;6206217;28;20277;-81
2023/05/06 19:40:10;;;;;;;10.55;6.90;;;;;;;;;;6124111;29;20044;-85
2023/05/06 19:43:57;;;;;;;11.25;7.65;;;;;;;;;;6112243;29;20063;-86
2023/05/06 19:54:26;;;;;;;13.38;8.88;;;;;;;;;;6059404;29;20257;-84
2023/05/06 19:57:28;;;;;;;14.85;9.80;;;;;;;;;;6060816;29;20094;-83
2023/05/06 20:00:38;;;;;;;12.60;9.05;;;;;;;;;;6060660;29;20061;-84
2023/05/06 20:03:46;;;;;;;14.88;9.45;;;;;;;;;;6060407;29;20057;-83
2023/05/06 20:07:12;;;;;;;15.98;11.15;;;;;;;;;;6048207;29;20075;-82
2023/05/06 20:13:30;;;;;;;15.02;9.52;;;;;;;;;;6057980;29;20048;-82
2023/05/06 20:16:32;;;;;;;12.57;8.88;;;;;;;;;;6094957;29;20114;-84
2023/05/06 20:19:41;;;;;;;15.07;9.70;;;;;;;;;;6122804;29;20043;-83
2023/05/06 20:23:15;;;;;;;17.17;9.80;;;;;;;;;;6145175;28;20139;-83
2023/05/06 20:26:23;;;;;;;16.02;11.68;;;;;;;;;;6218208;28;20058;-83
2023/05/06 20:29:36;;;;;;;16.05;11.52;;;;;;;;;;6226162;28;20057;-83
2023/05/06 20:32:40;;;;;;;19.08;11.65;;;;;;;;;;6224308;28;20065;-83
2023/05/06 20:35:41;;;;;;;;;;;;;;;;;;6223811;28;20076;-83
2023/05/06 20:42:26;;;;;;;18.02;12.52;;;;;;;;;;6188446;28;20061;-82
2023/05/06 20:45:31;;;;;;;19.70;12.55;;;;;;;;;;6229695;28;20064;-83
2023/05/06 20:48:42;;;;;;;18.85;12.82;;;;;;;;;;6227666;28;20104;-83
2023/05/06 20:51:46;;;;;;;17.38;14.60;;;;;;;;;;6229765;28;20103;-83
2023/05/06 20:54:49;;;;;;;21.17;14.02;;;;;;;;;;6224038;28;20057;-81
2023/05/06 20:57:58;;;;;;;18.58;13.88;;;;;;;;;;6229902;28;20050;-83
2023/05/06 21:01:10;;;;;;;16.38;12.70;;;;;;;;;;6226124;28;20069;-80
2023/05/06 21:04:52;;;;;;;;;;;;;;;;;;;;;
2023/05/06 21:08:02;;;;;;;23.02;13.65;;;;;;;;;;6205805;28;20057;-79
2023/05/06 21:11:06;;;;;;;16.17;12.15;;;;;;;;;;6217029;28;20337;-80
2023/05/06 21:14:08;;;;;;;;;;;;;;;;;;6227698;28;20064;-79
2023/05/06 21:18:10;;;;;;;18.08;12.07;;;;;;;;;;6228336;28;19969;-79
2023/05/06 21:21:13;;;;;;;19.42;13.43;;;;;;;;;;6217076;28;20049;-79
2023/05/06 21:25:01;;;;;;;22.42;14.23;;;;;;;;;;6221401;28;20061;-80
2023/05/06 21:28:57;;;;;;;21.02;13.20;;;;;;;;;;6131394;29;20047;-80
2023/05/06 21:32:16;;;;;;;24.13;13.20;;;;;;;;;;6123051;29;20051;-82
2023/05/06 21:42:11;;;;;;;17.75;12.02;;;;;;;;;;6069072;29;20341;-85
2023/05/06 22:05:03;;;;;;;20.02;14.38;;;;;;;;;;6136016;29;20343;-83
2023/05/06 22:12:10;;;;;;;25.48;15.25;;;;;;;;;;6124568;28;20048;-83
2023/05/06 22:15:43;;;;;;;27.60;16.13;;;;;;;;;;6109517;29;20209;-82
2023/05/06 22:19:33;;;;;;;22.38;14.63;;;;;;;;;;6135018;28;20122;-84
2023/05/06 22:22:59;;;;;;;22.00;15.07;;;;;;;;;;6142527;28;20143;-84
2023/05/06 22:26:26;;;;;;;;;;;;;;;;;;;;;
2023/05/06 22:38:14;;;;;;;21.65;15.93;;;;;;;;;;6085674;29;20040;-80
2023/05/06 22:41:56;;;;;;;21.92;16.30;;;;;;;;;;6129623;28;20126;-83
2023/05/06 22:45:20;;;;;;;28.70;17.92;;;;;;;;;;6219508;28;20113;-82
2023/05/06 22:48:35;;;;;;;24.33;18.85;;;;;;;;;;6217107;28;20095;-83
2023/05/06 22:51:47;;;;;;;27.52;18.42;;;;;;;;;;6218897;28;20096;-83
2023/05/06 22:55:15;;;;;;;25.50;18.85;;;;;;;;;;6172354;28;20049;-84
2023/05/06 22:58:26;;;;;;;24.23;19.23;;;;;;;;;;6219436;28;20073;-81
2023/05/06 23:02:13;;;;;;;27.52;19.70;;;;;;;;;;6219385;28;20054;-82
2023/05/06 23:05:29;;;;;;;32.08;20.75;;;;;;;;;;6188091;28;20061;-82
2023/05/06 23:08:36;;;;;;;31.58;21.70;;;;;;;;;;6205771;28;20049;-81
2023/05/06 23:11:38;;;;;;;31.00;21.70;;;;;;;;;;6223467;28;20057;-83
2023/05/06 23:14:57;;;;;;;29.30;22.30;;;;;;;;;;6217251;28;20277;-83
2023/05/06 23:22:12;;;;;;;33.72;23.70;;;;;;;;;;6190989;28;20034;-83
2023/05/06 23:25:15;;;;;;;34.03;25.40;;;;;;;;;;6190638;28;20049;-82
2023/05/06 23:28:31;;;;;;;28.83;22.90;;;;;;;;;;6175104;28;20046;-83
2023/05/06 23:42:51;;;;;;;38.13;22.95;;;;;;;;;;6173666;28;20563;-82
2023/05/06 23:45:53;;;;;;;32.70;23.80;;;;;;;;;;6191991;28;20404;-83
2023/05/06 23:48:55;;;;;;;33.10;23.83;;;;;;;;;;6194862;28;20081;-82
2023/05/06 23:51:59;;;;;;;33.80;23.48;;;;;;;;;;6218834;28;20068;-80
2023/05/06 23:55:01;;;;;;;30.65;24.15;;;;;;;;;;6219276;28;20144;-82
2023/05/06 23:58:08;;;;;;;33.90;24.52;;;;;;;;;;6218101;28;20516;-83
